Time;durP1;ratioP1;P1;durP2;ratioP2;P2;SDS_P1;SDS_P2;PMS_P1;PMS_P2;Temp;Humidity;BMP_temperature;BMP_pressure;BME280_temperature;BME280_humidity;BME280_pressure;Samples;Min_cycle;Max_cycle;Signal;HPM_P1;HPM_P2
2023/10/30 00:00:14;;;;;;;3.40;1.33;;;11.70;99.90;;;;;;5059000;28;20442;-71
2023/10/30 00:02:42;;;;;;;3.73;1.77;;;11.70;99.90;;;;;;5058795;28;20434;-71
2023/10/30 00:05:11;;;;;;;5.10;1.60;;;11.70;99.90;;;;;;5059169;28;20442;-71
2023/10/30 00:07:39;;;;;;;4.23;1.80;;;11.70;99.90;;;;;;5058769;28;20438;-71
2023/10/30 00:10:08;;;;;;;4.47;1.93;;;11.70;99.90;;;;;;5058752;28;21010;-71
2023/10/30 00:12:36;;;;;;;3.10;1.30;;;11.60;99.90;;;;;;5059485;28;20468;-71
2023/10/30 00:15:06;;;;;;;5.77;1.70;;;11.60;99.90;;;;;;5059032;28;20446;-71
2023/10/30 00:17:35;;;;;;;4.67;1.47;;;11.60;99.90;;;;;;5059261;28;20446;-71
2023/10/30 00:20:03;;;;;;;3.00;1.20;;;11.60;99.90;;;;;;5059280;28;20495;-71
2023/10/30 00:22:31;;;;;;;2.60;1.50;;;11.60;99.90;;;;;;5058836;28;20464;-71
2023/10/30 00:25:01;;;;;;;5.20;1.30;;;11.60;99.90;;;;;;5059790;28;20434;-71
2023/10/30 00:27:29;;;;;;;3.20;1.30;;;11.60;99.90;;;;;;5062100;28;20433;-71
2023/10/30 00:29:57;;;;;;;3.00;1.63;;;11.60;99.90;;;;;;5044906;28;20453;-71
2023/10/30 00:32:27;;;;;;;4.00;1.30;;;11.60;99.90;;;;;;5039316;28;20498;-71
2023/10/30 00:34:55;;;;;;;5.67;2.10;;;11.60;99.90;;;;;;5057103;28;20985;-71
2023/10/30 00:37:23;;;;;;;3.40;1.73;;;11.60;99.90;;;;;;5038693;28;20454;-71
2023/10/30 00:39:51;;;;;;;2.30;1.30;;;11.60;99.90;;;;;;5056902;28;20525;-71
2023/10/30 00:42:22;;;;;;;4.80;1.87;;;11.60;99.90;;;;;;5038990;28;21010;-71
2023/10/30 00:44:50;;;;;;;3.27;1.73;;;11.60;99.90;;;;;;5039096;28;20438;-70
2023/10/30 00:47:19;;;;;;;3.70;1.37;;;11.60;99.90;;;;;;5038928;28;20449;-71
2023/10/30 00:49:48;;;;;;;4.40;1.80;;;11.60;99.90;;;;;;5038810;28;20442;-71
2023/10/30 00:52:17;;;;;;;4.30;1.83;;;11.50;99.90;;;;;;5056377;28;20466;-70
2023/10/30 00:54:46;;;;;;;5.13;1.80;;;11.50;99.90;;;;;;5038855;28;20816;-71
2023/10/30 00:57:14;;;;;;;5.03;1.97;;;11.50;99.90;;;;;;5056041;28;20465;-71
2023/10/30 00:59:42;;;;;;;3.33;1.40;;;11.60;99.90;;;;;;5038420;28;20473;-71
2023/10/30 01:02:10;;;;;;;3.37;1.80;;;11.50;99.90;;;;;;5056183;28;20446;-71
2023/10/30 01:04:39;;;;;;;4.00;2.10;;;11.60;99.90;;;;;;5056439;28;20438;-71
2023/10/30 01:07:08;;;;;;;4.80;1.93;;;11.50;99.90;;;;;;5038181;28;20438;-71
2023/10/30 01:09:36;;;;;;;5.43;1.87;;;11.60;99.90;;;;;;5038729;28;20562;-71
2023/10/30 01:12:05;;;;;;;5.87;2.23;;;11.50;99.90;;;;;;5056100;28;20525;-71
2023/10/30 01:14:35;;;;;;;5.43;1.70;;;11.60;99.90;;;;;;5038255;28;20441;-71
2023/10/30 01:17:03;;;;;;;6.90;1.97;;;11.60;99.90;;;;;;5038368;28;20454;-71
2023/10/30 01:19:31;;;;;;;6.33;1.87;;;11.60;99.90;;;;;;5038514;28;20512;-71
2023/10/30 01:22:00;;;;;;;4.70;1.70;;;11.60;99.90;;;;;;5038447;28;20438;-71
2023/10/30 01:24:30;;;;;;;5.23;1.50;;;11.60;99.90;;;;;;5056518;28;20466;-71
2023/10/30 01:26:58;;;;;;;4.10;1.63;;;11.60;99.90;;;;;;5038140;28;20850;-71
2023/10/30 01:29:26;;;;;;;8.50;2.37;;;11.60;99.90;;;;;;5038144;28;20492;-71
2023/10/30 01:31:54;;;;;;;9.83;2.33;;;11.60;99.90;;;;;;5038417;28;20477;-71
2023/10/30 01:34:23;;;;;;;4.30;1.83;;;11.60;99.90;;;;;;5038549;28;20585;-71
2023/10/30 01:36:51;;;;;;;3.73;1.80;;;11.60;99.90;;;;;;5037793;28;20450;-71
2023/10/30 01:39:19;;;;;;;4.30;1.73;;;11.60;99.90;;;;;;5043244;28;20520;-71
2023/10/30 01:41:49;;;;;;;4.70;1.83;;;11.60;99.90;;;;;;5042574;28;20800;-71
2023/10/30 01:44:17;;;;;;;4.70;1.93;;;11.60;99.90;;;;;;5057749;28;20430;-71
2023/10/30 01:46:45;;;;;;;3.83;1.67;;;11.60;99.90;;;;;;5041399;28;20469;-71
2023/10/30 01:49:13;;;;;;;4.17;1.80;;;11.60;99.90;;;;;;5056552;28;20516;-71
2023/10/30 01:51:42;;;;;;;4.63;1.80;;;11.60;99.90;;;;;;5039319;28;20997;-71
2023/10/30 01:54:10;;;;;;;5.60;1.97;;;11.60;99.90;;;;;;5038087;28;20471;-71
2023/10/30 01:56:41;;;;;;;3.07;1.70;;;11.60;99.90;;;;;;5055736;28;20974;-71
2023/10/30 01:59:10;;;;;;;4.97;2.53;;;11.60;99.90;;;;;;5038016;28;20799;-71
2023/10/30 02:01:39;;;;;;;6.00;2.10;;;11.50;99.90;;;;;;5037707;28;20477;-71
2023/10/30 02:04:07;;;;;;;6.43;2.30;;;11.50;99.90;;;;;;5037946;28;20546;-71
2023/10/30 02:06:35;;;;;;;4.30;1.67;;;11.50;99.90;;;;;;5055355;28;20924;-71
2023/10/30 02:09:05;;;;;;;6.33;2.10;;;11.50;99.90;;;;;;5037710;28;20981;-70
2023/10/30 02:11:33;;;;;;;7.07;2.20;;;11.50;99.90;;;;;;5037115;28;20450;-71
2023/10/30 02:14:02;;;;;;;8.40;2.03;;;11.60;99.90;;;;;;5037122;28;20497;-71
2023/10/30 02:16:32;;;;;;;5.60;1.70;;;11.60;99.90;;;;;;5037262;28;20442;-71
2023/10/30 02:19:01;;;;;;;4.90;2.00;;;11.60;99.90;;;;;;5054849;28;20504;-70
2023/10/30 02:21:30;;;;;;;5.60;2.70;;;11.60;99.90;;;;;;5054916;28;20442;-71
2023/10/30 02:24:05;;;;;;;7.17;2.43;;;11.60;99.90;;;;;;5055345;28;20442;-71
2023/10/30 02:26:35;;;;;;;9.70;2.30;;;11.60;99.90;;;;;;5037346;28;20802;-71
2023/10/30 02:29:05;;;;;;;5.77;2.20;;;11.70;99.90;;;;;;5054952;28;20469;-71
2023/10/30 02:31:35;;;;;;;6.27;2.40;;;11.70;99.90;;;;;;5036942;28;20986;-71
2023/10/30 02:34:03;;;;;;;7.20;2.63;;;11.70;99.90;;;;;;5036789;28;20535;-71
2023/10/30 02:36:31;;;;;;;4.73;1.70;;;11.70;99.90;;;;;;5037101;28;20450;-71
2023/10/30 02:39:02;;;;;;;6.20;1.70;;;11.70;99.90;;;;;;5036978;28;20987;-71
2023/10/30 02:41:31;;;;;;;7.10;2.10;;;11.70;99.90;;;;;;5054853;28;20458;-71
2023/10/30 02:44:01;;;;;;;6.47;2.43;;;11.70;99.90;;;;;;5036767;28;20469;-71
2023/10/30 02:46:29;;;;;;;4.10;2.33;;;11.70;99.90;;;;;;5036574;28;20460;-71
2023/10/30 02:48:57;;;;;;;4.83;2.37;;;11.70;99.90;;;;;;5036510;28;20515;-71
2023/10/30 02:51:25;;;;;;;7.10;2.67;;;11.70;99.90;;;;;;5036404;28;20442;-71
2023/10/30 02:53:53;;;;;;;6.47;2.50;;;11.70;99.90;;;;;;5036546;28;20478;-71
2023/10/30 02:56:21;;;;;;;7.20;2.70;;;11.70;99.90;;;;;;5036644;28;20540;-71
2023/10/30 02:58:50;;;;;;;4.77;2.60;;;11.70;99.90;;;;;;5054212;28;20975;-71
2023/10/30 03:01:19;;;;;;;8.90;2.40;;;11.70;99.90;;;;;;5054525;28;20778;-71
2023/10/30 03:03:48;;;;;;;10.77;3.00;;;11.70;99.90;;;;;;5037067;28;20454;-71
2023/10/30 03:06:17;;;;;;;7.23;3.00;;;11.70;99.90;;;;;;5054386;28;20434;-71
2023/10/30 03:08:45;;;;;;;6.27;2.77;;;11.70;99.90;;;;;;5037084;28;20473;-71
2023/10/30 03:11:13;;;;;;;5.67;2.50;;;11.70;99.90;;;;;;5036793;28;20446;-71
2023/10/30 03:13:41;;;;;;;5.77;2.67;;;11.70;99.90;;;;;;5054474;28;20505;-71
2023/10/30 03:16:09;;;;;;;6.03;2.10;;;11.70;99.90;;;;;;5036943;28;20813;-71
2023/10/30 03:18:40;;;;;;;8.47;3.10;;;11.70;99.90;;;;;;5054180;28;20588;-71
2023/10/30 03:21:08;;;;;;;5.97;2.80;;;11.70;99.90;;;;;;5053678;28;20423;-71
2023/10/30 03:23:36;;;;;;;7.33;2.67;;;11.70;99.90;;;;;;5054624;28;20476;-71
2023/10/30 03:26:04;;;;;;;7.60;2.77;;;11.70;99.90;;;;;;5036617;28;20484;-71
2023/10/30 03:28:32;;;;;;;6.03;2.60;;;11.70;99.90;;;;;;5054182;28;20501;-71
2023/10/30 03:31:05;;;;;;;4.70;2.20;;;11.70;99.90;;;;;;5036396;28;20449;-71
2023/10/30 03:33:34;;;;;;;5.90;2.87;;;11.70;99.90;;;;;;5054496;28;20454;-71
2023/10/30 03:36:04;;;;;;;7.33;2.60;;;11.70;99.90;;;;;;5053913;28;20985;-71
2023/10/30 03:38:32;;;;;;;8.07;2.50;;;11.70;99.90;;;;;;5054438;28;20511;-71
2023/10/30 03:41:00;;;;;;;9.30;2.73;;;11.70;99.90;;;;;;5053928;28;20438;-71
2023/10/30 03:43:29;;;;;;;13.07;2.77;;;11.70;99.90;;;;;;5036454;28;20460;-71
2023/10/30 03:45:57;;;;;;;6.10;2.80;;;11.70;99.90;;;;;;5054727;28;20439;-71
2023/10/30 03:48:25;;;;;;;6.00;2.53;;;11.70;99.90;;;;;;5036710;28;20474;-71
2023/10/30 03:50:53;;;;;;;8.13;2.70;;;11.70;99.90;;;;;;5055119;28;20434;-71
2023/10/30 03:53:22;;;;;;;9.23;3.00;;;11.70;99.90;;;;;;5053684;28;20464;-71
2023/10/30 03:55:50;;;;;;;6.40;2.03;;;11.70;99.90;;;;;;5053694;28;20437;-71
2023/10/30 03:58:18;;;;;;;5.60;2.57;;;11.70;99.90;;;;;;5053093;28;20859;-71
2023/10/30 04:00:46;;;;;;;6.40;2.47;;;11.70;99.90;;;;;;5052860;28;20469;-71
2023/10/30 04:03:15;;;;;;;6.90;2.50;;;11.70;99.90;;;;;;5052839;28;20537;-71
2023/10/30 04:05:43;;;;;;;7.23;2.47;;;11.70;99.90;;;;;;5052914;28;20437;-71
2023/10/30 04:08:11;;;;;;;6.70;2.40;;;11.70;99.90;;;;;;5052757;28;20466;-71
2023/10/30 04:10:40;;;;;;;5.70;2.37;;;11.70;99.90;;;;;;5053016;28;20529;-71
2023/10/30 04:13:08;;;;;;;11.17;3.00;;;11.70;99.90;;;;;;5052753;28;20445;-71
2023/10/30 04:15:37;;;;;;;5.97;2.60;;;11.70;99.90;;;;;;5052699;28;20473;-71
2023/10/30 04:18:05;;;;;;;7.63;3.43;;;11.70;99.90;;;;;;5052662;28;20457;-71
2023/10/30 04:20:33;;;;;;;8.13;2.83;;;11.70;99.90;;;;;;5034797;28;20450;-71
2023/10/30 04:23:01;;;;;;;5.83;2.37;;;11.70;99.90;;;;;;5052691;28;20765;-71
2023/10/30 04:25:30;;;;;;;8.13;2.80;;;11.70;99.90;;;;;;5051364;28;20540;-71
2023/10/30 04:27:59;;;;;;;8.90;2.30;;;11.70;99.90;;;;;;5052537;28;20462;-71
2023/10/30 04:30:27;;;;;;;5.67;1.67;;;11.70;99.90;;;;;;5052856;28;20441;-71
2023/10/30 04:32:57;;;;;;;8.17;2.63;;;11.70;99.90;;;;;;5054951;28;20533;-71
2023/10/30 04:35:25;;;;;;;5.40;2.27;;;11.80;99.90;;;;;;5056234;28;20461;-71
2023/10/30 04:37:53;;;;;;;9.13;2.40;;;11.80;99.90;;;;;;5056493;28;20458;-71
2023/10/30 04:40:22;;;;;;;9.53;3.50;;;11.80;99.90;;;;;;5038305;28;20545;-71
2023/10/30 04:42:50;;;;;;;6.00;2.93;;;11.80;99.90;;;;;;5056316;28;20919;-71
2023/10/30 04:45:19;;;;;;;6.20;2.10;;;11.80;99.90;;;;;;5055936;28;20442;-71
2023/10/30 04:47:48;;;;;;;10.10;2.60;;;11.80;99.90;;;;;;5038055;28;20845;-71
2023/10/30 04:50:16;;;;;;;8.87;2.40;;;11.80;99.90;;;;;;5056212;28;20438;-71
2023/10/30 04:52:44;;;;;;;7.30;3.50;;;11.80;99.90;;;;;;5056413;28;20442;-71
2023/10/30 04:55:12;;;;;;;11.67;3.17;;;11.90;99.90;;;;;;5037825;28;20488;-71
2023/10/30 04:57:40;;;;;;;6.40;2.23;;;11.80;99.90;;;;;;5055663;28;20806;-71
2023/10/30 05:00:09;;;;;;;11.60;2.90;;;11.90;99.90;;;;;;5055743;28;20496;-71
2023/10/30 05:02:39;;;;;;;6.23;2.93;;;11.90;99.90;;;;;;5055953;28;20440;-71
2023/10/30 05:05:07;;;;;;;5.00;2.23;;;11.80;99.90;;;;;;5055676;28;20438;-71
2023/10/30 05:07:35;;;;;;;7.93;2.80;;;11.80;99.90;;;;;;5055677;28;20437;-71
2023/10/30 05:10:04;;;;;;;5.30;2.70;;;11.80;99.90;;;;;;5056073;28;20442;-71
2023/10/30 05:12:32;;;;;;;6.77;2.57;;;11.90;99.90;;;;;;5055830;28;20999;-71
2023/10/30 05:15:00;;;;;;;5.73;2.10;;;11.80;99.90;;;;;;5055657;28;20473;-71
2023/10/30 05:17:28;;;;;;;6.53;2.40;;;11.80;99.90;;;;;;5055357;28;20934;-71
2023/10/30 05:19:57;;;;;;;5.13;2.30;;;11.80;99.90;;;;;;5055372;28;20442;-71
2023/10/30 05:22:27;;;;;;;8.40;2.53;;;11.80;99.90;;;;;;5055306;28;20854;-71
2023/10/30 05:24:55;;;;;;;8.87;2.60;;;11.80;99.90;;;;;;5055572;28;20769;-71
2023/10/30 05:27:25;;;;;;;8.23;2.70;;;11.80;99.90;;;;;;5055143;28;20440;-71
2023/10/30 05:29:54;;;;;;;8.00;3.00;;;11.80;99.90;;;;;;5055841;28;20778;-71
2023/10/30 05:32:22;;;;;;;5.40;2.67;;;11.80;99.90;;;;;;5055697;28;20941;-71
2023/10/30 05:34:52;;;;;;;7.37;3.00;;;11.80;99.90;;;;;;5054976;28;20470;-71
2023/10/30 05:37:22;;;;;;;7.33;2.10;;;11.80;99.90;;;;;;5037067;28;20500;-71
2023/10/30 05:39:50;;;;;;;9.07;3.13;;;11.80;99.90;;;;;;5037108;28;20516;-71
2023/10/30 05:42:19;;;;;;;12.23;2.90;;;11.80;99.90;;;;;;5055173;28;20850;-71
2023/10/30 05:44:47;;;;;;;8.23;2.63;;;11.80;99.90;;;;;;5054891;28;20449;-71
2023/10/30 05:47:15;;;;;;;5.57;2.50;;;11.80;99.90;;;;;;5054809;28;20943;-71
2023/10/30 05:49:45;;;;;;;5.93;1.97;;;11.80;99.90;;;;;;5054700;28;20458;-71
2023/10/30 05:52:13;;;;;;;6.27;2.60;;;11.80;99.90;;;;;;5054779;28;20544;-71
2023/10/30 05:54:43;;;;;;;5.37;2.33;;;11.70;99.90;;;;;;5055176;28;20502;-71
2023/10/30 05:57:11;;;;;;;9.93;2.77;;;11.70;99.90;;;;;;5054657;28;20488;-71
2023/10/30 05:59:42;;;;;;;9.63;2.57;;;11.70;99.90;;;;;;5054809;28;20461;-71
2023/10/30 06:02:09;;;;;;;4.87;2.90;;;11.70;99.90;;;;;;5054584;28;20434;-71
2023/10/30 06:04:37;;;;;;;6.90;2.40;;;11.70;99.90;;;;;;5054488;28;20430;-71
2023/10/30 06:07:05;;;;;;;7.07;2.47;;;11.70;99.90;;;;;;5054733;28;20438;-71
2023/10/30 06:09:33;;;;;;;9.70;2.73;;;11.70;99.90;;;;;;5054634;28;20962;-71
2023/10/30 06:12:03;;;;;;;10.10;3.10;;;11.70;99.90;;;;;;5054682;28;20521;-71
2023/10/30 06:14:31;;;;;;;10.77;3.10;;;11.70;99.90;;;;;;5054323;28;20418;-71
2023/10/30 06:17:01;;;;;;;7.87;3.10;;;11.70;99.90;;;;;;5054224;28;20434;-71
2023/10/30 06:19:29;;;;;;;8.70;2.33;;;11.60;99.90;;;;;;5054088;28;20450;-71
2023/10/30 06:21:58;;;;;;;5.80;2.57;;;11.60;99.90;;;;;;5054219;28;20492;-71
2023/10/30 06:24:26;;;;;;;9.53;2.77;;;11.60;99.90;;;;;;5054143;28;20476;-71
2023/10/30 06:26:54;;;;;;;6.63;3.13;;;11.60;99.90;;;;;;5054105;28;20438;-71
2023/10/30 06:29:23;;;;;;;6.50;2.90;;;11.60;99.90;;;;;;5054040;28;20460;-71
2023/10/30 06:31:51;;;;;;;8.17;2.73;;;11.60;99.90;;;;;;5054059;28;20445;-71
2023/10/30 06:34:20;;;;;;;11.23;2.77;;;11.60;99.90;;;;;;5054222;28;20433;-71
2023/10/30 06:36:48;;;;;;;8.47;3.00;;;11.50;99.90;;;;;;5035938;28;20850;-71
2023/10/30 06:39:20;;;;;;;6.67;2.83;;;11.50;99.90;;;;;;5054137;28;20858;-71
2023/10/30 06:41:54;;;;;;;7.03;2.30;;;11.50;99.90;;;;;;5036051;28;20958;-71
2023/10/30 06:44:24;;;;;;;7.87;2.87;;;11.50;99.90;;;;;;5053825;28;20441;-71
2023/10/30 06:46:52;;;;;;;8.80;2.60;;;11.50;99.90;;;;;;5053741;28;20430;-71
2023/10/30 06:49:24;;;;;;;8.93;4.47;;;11.50;99.90;;;;;;5053945;28;20507;-71
2023/10/30 06:51:52;;;;;;;7.77;2.67;;;11.50;99.90;;;;;;5053631;28;20957;-71
2023/10/30 06:54:20;;;;;;;12.63;4.20;;;11.50;99.90;;;;;;5053542;28;20446;-71
2023/10/30 06:56:49;;;;;;;6.73;3.20;;;11.50;99.90;;;;;;5053589;28;20975;-71
2023/10/30 06:59:17;;;;;;;7.17;2.30;;;11.50;99.90;;;;;;5053606;28;20460;-71
2023/10/30 07:01:47;;;;;;;6.10;2.80;;;11.50;99.90;;;;;;5053839;28;20571;-71
2023/10/30 07:04:16;;;;;;;5.90;2.27;;;11.40;99.90;;;;;;5053925;28;20510;-71
2023/10/30 07:06:44;;;;;;;8.90;3.00;;;11.40;99.90;;;;;;5053501;28;20931;-71
2023/10/30 07:09:13;;;;;;;6.63;2.60;;;11.40;99.90;;;;;;5053490;28;20458;-71
2023/10/30 07:11:41;;;;;;;7.87;2.80;;;11.40;99.90;;;;;;5053707;28;20955;-71
2023/10/30 07:14:09;;;;;;;9.07;3.03;;;11.40;99.90;;;;;;5053430;28;20430;-71
2023/10/30 07:16:38;;;;;;;6.40;2.90;;;11.40;99.90;;;;;;5035468;28;20466;-71
2023/10/30 07:19:17;;;;;;;6.70;3.07;;;11.40;99.90;;;;;;5053640;28;20545;-71
2023/10/30 07:21:45;;;;;;;10.50;2.87;;;11.40;99.90;;;;;;5053561;28;20434;-71
2023/10/30 07:24:13;;;;;;;7.60;2.83;;;11.40;99.90;;;;;;5053658;28;20764;-71
2023/10/30 07:26:42;;;;;;;5.90;3.00;;;11.40;99.90;;;;;;5053812;28;20441;-71
2023/10/30 07:29:11;;;;;;;7.17;2.93;;;11.40;99.90;;;;;;5053190;28;20486;-71
2023/10/30 07:31:39;;;;;;;6.00;2.17;;;11.40;99.90;;;;;;5035316;28;20785;-71
2023/10/30 07:34:07;;;;;;;5.77;2.30;;;11.40;99.90;;;;;;5053056;28;20780;-71
2023/10/30 07:36:37;;;;;;;7.70;2.63;;;11.40;99.90;;;;;;5053145;28;20473;-71
2023/10/30 07:39:07;;;;;;;8.50;2.43;;;11.40;99.90;;;;;;5053049;28;20457;-71
2023/10/30 07:41:38;;;;;;;7.60;2.73;;;11.40;99.90;;;;;;5053509;28;20441;-71
2023/10/30 07:44:07;;;;;;;6.80;2.30;;;11.40;99.90;;;;;;5035266;28;20442;-71
2023/10/30 07:46:36;;;;;;;6.97;2.33;;;11.40;99.90;;;;;;5053440;28;20445;-71
2023/10/30 07:49:06;;;;;;;9.40;3.20;;;11.40;99.90;;;;;;5053070;28;20488;-71
2023/10/30 07:51:34;;;;;;;9.37;4.63;;;11.40;99.90;;;;;;5053288;28;20430;-71
2023/10/30 07:54:04;;;;;;;9.87;2.80;;;11.40;99.90;;;;;;5052937;28;20483;-71
2023/10/30 07:56:32;;;;;;;5.20;2.87;;;11.50;99.90;;;;;;5034956;28;20476;-71
2023/10/30 07:59:00;;;;;;;7.83;3.77;;;11.50;99.90;;;;;;5053093;28;20477;-71
2023/10/30 08:01:28;;;;;;;9.47;3.10;;;11.50;99.90;;;;;;5053197;28;20442;-71
2023/10/30 08:03:56;;;;;;;5.50;3.40;;;11.50;99.90;;;;;;5052926;28;20434;-71
2023/10/30 08:06:25;;;;;;;6.80;3.47;;;11.50;99.90;;;;;;5054562;28;20791;-71
2023/10/30 08:08:54;;;;;;;7.23;2.30;;;11.60;99.90;;;;;;5056891;28;20962;-71
2023/10/30 08:11:23;;;;;;;8.03;2.90;;;11.60;99.90;;;;;;5056643;28;20441;-71
2023/10/30 08:13:51;;;;;;;6.63;2.80;;;11.60;99.90;;;;;;5038783;28;20484;-71
2023/10/30 08:16:19;;;;;;;6.83;2.63;;;11.70;99.90;;;;;;5057033;28;20470;-71
2023/10/30 08:18:48;;;;;;;7.00;2.57;;;11.70;99.90;;;;;;5056802;28;20450;-71
2023/10/30 08:21:16;;;;;;;7.87;2.70;;;11.70;99.90;;;;;;5056828;28;20441;-71
2023/10/30 08:23:44;;;;;;;11.30;3.03;;;11.80;99.90;;;;;;5056688;28;20951;-71
2023/10/30 08:26:12;;;;;;;6.53;3.23;;;11.80;99.90;;;;;;5056505;28;20434;-71
2023/10/30 08:28:44;;;;;;;8.00;2.63;;;11.90;99.90;;;;;;5038630;28;20477;-71
2023/10/30 08:31:12;;;;;;;4.73;2.53;;;11.90;99.90;;;;;;5056664;28;20418;-71
2023/10/30 08:33:40;;;;;;;10.07;2.53;;;12.00;99.90;;;;;;5056358;28;20453;-72
2023/10/30 08:36:09;;;;;;;10.83;2.40;;;12.00;99.90;;;;;;5062235;28;20481;-71
2023/10/30 08:38:38;;;;;;;6.30;2.70;;;12.00;99.90;;;;;;5064214;28;20458;-71
2023/10/30 08:41:11;;;;;;;7.93;2.33;;;12.10;99.90;;;;;;5060245;28;20524;-71
2023/10/30 08:43:39;;;;;;;8.00;2.90;;;12.10;99.90;;;;;;5059749;28;20468;-71
2023/10/30 08:46:08;;;;;;;8.57;3.07;;;12.20;99.90;;;;;;5058066;28;20469;-71
2023/10/30 08:48:37;;;;;;;11.80;2.70;;;12.20;99.90;;;;;;5056894;28;20450;-71
2023/10/30 08:51:05;;;;;;;6.10;2.93;;;12.30;99.90;;;;;;5056721;28;20490;-71
2023/10/30 08:53:34;;;;;;;5.30;2.67;;;12.30;99.90;;;;;;5056873;28;20850;-71
2023/10/30 08:56:03;;;;;;;9.53;2.97;;;12.30;99.90;;;;;;5056638;28;20446;-71
2023/10/30 08:58:31;;;;;;;7.50;2.90;;;12.40;99.90;;;;;;5056282;28;20452;-71
2023/10/30 09:00:59;;;;;;;7.40;2.57;;;12.50;99.90;;;;;;5038163;28;21009;-71
2023/10/30 09:03:29;;;;;;;7.87;2.83;;;12.50;99.90;;;;;;5038116;28;20450;-71
2023/10/30 09:05:57;;;;;;;5.77;2.73;;;12.50;99.90;;;;;;5055855;28;20442;-71
2023/10/30 09:08:25;;;;;;;6.53;2.60;;;12.60;99.90;;;;;;5055705;28;20474;-71
2023/10/30 09:10:53;;;;;;;4.57;2.70;;;12.60;99.90;;;;;;5055994;28;20950;-71
2023/10/30 09:13:21;;;;;;;5.37;2.37;;;12.70;99.90;;;;;;5055691;28;20448;-71
2023/10/30 09:15:49;;;;;;;7.23;2.57;;;12.70;99.90;;;;;;5037697;28;20966;-71
2023/10/30 09:18:18;;;;;;;12.20;3.27;;;12.80;99.90;;;;;;5054671;28;20547;-71
2023/10/30 09:20:47;;;;;;;4.37;2.43;;;12.80;99.90;;;;;;5055844;28;20446;-71
2023/10/30 09:23:15;;;;;;;13.33;3.53;;;12.90;99.90;;;;;;5055385;28;20438;-71
2023/10/30 09:25:43;;;;;;;5.70;2.43;;;12.90;99.90;;;;;;5055262;28;20452;-71
2023/10/30 09:28:11;;;;;;;9.37;2.60;;;13.00;99.90;;;;;;5055831;28;20507;-71
2023/10/30 09:30:40;;;;;;;5.87;2.60;;;13.00;99.90;;;;;;5055208;28;20798;-71
2023/10/30 09:33:08;;;;;;;6.87;2.70;;;13.10;99.90;;;;;;5055404;28;20939;-71
2023/10/30 09:35:38;;;;;;;11.77;3.30;;;13.10;99.90;;;;;;5054866;28;20987;-71
2023/10/30 09:38:08;;;;;;;5.57;2.33;;;13.10;99.90;;;;;;5055195;28;20936;-71
2023/10/30 09:40:36;;;;;;;7.83;2.27;;;13.20;99.90;;;;;;5055526;28;20438;-71
2023/10/30 09:43:09;;;;;;;5.80;2.50;;;13.20;99.90;;;;;;5054985;28;20438;-71
2023/10/30 09:45:42;;;;;;;5.53;2.50;;;13.20;99.90;;;;;;5055093;28;20422;-71
2023/10/30 09:48:12;;;;;;;9.73;2.87;;;13.20;99.90;;;;;;5054626;28;20454;-71
2023/10/30 09:50:40;;;;;;;8.37;2.70;;;13.30;99.90;;;;;;5054644;28;20434;-71
2023/10/30 09:53:10;;;;;;;9.27;3.83;;;13.30;99.90;;;;;;5036681;28;20537;-71
2023/10/30 09:55:39;;;;;;;5.20;2.13;;;13.30;99.90;;;;;;5036664;28;20503;-71
2023/10/30 09:58:09;;;;;;;6.17;2.20;;;13.30;99.90;;;;;;5054584;28;20478;-71
2023/10/30 10:00:37;;;;;;;4.83;2.40;;;13.40;99.90;;;;;;5054430;28;20422;-71
2023/10/30 10:03:06;;;;;;;6.07;2.47;;;13.40;99.90;;;;;;5054370;28;20525;-71
2023/10/30 10:05:34;;;;;;;5.73;2.60;;;13.50;99.90;;;;;;5054680;28;20790;-71
2023/10/30 10:08:05;;;;;;;7.33;2.00;;;13.50;99.90;;;;;;5054209;28;20442;-71
2023/10/30 10:10:55;;;;;;;5.47;2.13;;;13.50;99.90;;;;;;5054173;28;20464;-71
2023/10/30 10:13:28;;;;;;;7.87;2.63;;;13.60;99.90;;;;;;5054861;28;20480;-71
2023/10/30 10:15:57;;;;;;;6.07;2.80;;;13.60;99.90;;;;;;5036347;28;20438;-71
2023/10/30 10:18:26;;;;;;;4.70;2.10;;;13.70;99.90;;;;;;5054034;28;20860;-71
2023/10/30 10:20:56;;;;;;;8.73;2.37;;;13.70;99.90;;;;;;5054293;28;20438;-71
2023/10/30 10:23:25;;;;;;;7.47;3.00;;;13.70;99.90;;;;;;5054335;28;20465;-71
2023/10/30 10:25:54;;;;;;;9.27;4.30;;;13.80;99.90;;;;;;5053964;28;20435;-71
2023/10/30 10:28:25;;;;;;;8.57;3.10;;;13.90;99.90;;;;;;5053963;28;20450;-71
2023/10/30 10:30:54;;;;;;;6.57;2.60;;;13.90;99.90;;;;;;5053802;28;20804;-71
2023/10/30 10:33:23;;;;;;;6.83;2.60;;;13.90;99.90;;;;;;5054410;28;20865;-71
2023/10/30 10:35:56;;;;;;;6.20;2.60;;;14.00;99.90;;;;;;5053602;28;20441;-71
2023/10/30 10:38:24;;;;;;;8.70;2.80;;;14.00;99.90;;;;;;5053584;28;20474;-71
2023/10/30 10:40:52;;;;;;;5.90;2.30;;;14.00;99.90;;;;;;5054577;28;20434;-71
2023/10/30 10:43:21;;;;;;;7.20;2.60;;;14.00;99.90;;;;;;5053855;28;20461;-71
2023/10/30 10:45:53;;;;;;;4.93;2.70;;;14.00;99.90;;;;;;5053812;28;20472;-71
2023/10/30 10:48:22;;;;;;;9.67;2.70;;;14.10;99.90;;;;;;5053856;28;20548;-71
2023/10/30 10:50:50;;;;;;;10.10;3.57;;;14.10;99.90;;;;;;5053717;28;20434;-71
2023/10/30 10:53:20;;;;;;;4.90;2.40;;;14.10;99.90;;;;;;5053883;28;20442;-71
2023/10/30 10:55:50;;;;;;;8.40;4.40;;;14.20;99.90;;;;;;5053760;28;20426;-71
2023/10/30 10:58:22;;;;;;;9.97;3.07;;;14.20;99.90;;;;;;5053546;28;21044;-71
2023/10/30 11:00:55;;;;;;;7.37;3.13;;;14.20;99.90;;;;;;5053828;28;20429;-71
2023/10/30 11:03:23;;;;;;;7.33;2.60;;;14.20;99.90;;;;;;5053983;28;20843;-71
2023/10/30 11:05:53;;;;;;;8.93;2.67;;;14.20;99.90;;;;;;5053782;28;20449;-71
2023/10/30 11:08:39;;;;;;;8.33;2.70;;;14.30;99.90;;;;;;5053650;28;20955;-71
2023/10/30 11:11:13;;;;;;;6.13;2.10;;;14.30;99.90;;;;;;5053581;28;20418;-71
2023/10/30 11:13:55;;;;;;;5.87;2.70;;;14.30;99.90;;;;;;5053540;28;20433;-72
2023/10/30 11:16:29;;;;;;;8.00;2.63;;;14.40;99.90;;;;;;5035883;28;20803;-71
2023/10/30 11:19:06;;;;;;;7.23;2.23;;;14.40;99.90;;;;;;5053464;28;20576;-72
2023/10/30 11:21:35;;;;;;;3.70;2.10;;;14.40;99.90;;;;;;5053368;28;20472;-72
2023/10/30 11:24:03;;;;;;;6.20;2.00;;;14.50;99.90;;;;;;5053282;28;20780;-72
2023/10/30 11:26:39;;;;;;;11.47;3.70;;;14.50;99.90;;;;;;5053787;28;20528;-71
2023/10/30 11:29:10;;;;;;;5.70;2.20;;;14.60;99.90;;;;;;5053212;28;20497;-71
2023/10/30 11:32:02;;;;;;;6.93;2.90;;;14.60;99.90;;;;;;5036331;28;20468;-72
2023/10/30 11:34:35;;;;;;;3.90;2.23;;;14.60;99.90;;;;;;5053349;28;20953;-71
2023/10/30 11:37:05;;;;;;;6.73;2.27;;;14.60;99.90;;;;;;5053171;28;20878;-72
2023/10/30 11:39:38;;;;;;;8.70;2.63;;;14.60;99.90;;;;;;5053097;28;20481;-71
2023/10/30 11:42:29;;;;;;;8.80;2.37;;;14.70;99.90;;;;;;5056590;28;20472;-71
2023/10/30 11:45:22;;;;;;;5.90;2.07;;;14.70;99.90;;;;;;5057760;28;20437;-71
2023/10/30 11:47:59;;;;;;;9.07;2.70;;;14.70;99.90;;;;;;5057563;28;20536;-71
2023/10/30 11:50:28;;;;;;;9.13;3.00;;;14.70;99.90;;;;;;5057431;28;20865;-71
2023/10/30 11:53:00;;;;;;;4.27;2.17;;;14.70;99.90;;;;;;5057316;28;20438;-71
2023/10/30 11:55:31;;;;;;;6.53;2.50;;;14.80;99.90;;;;;;5057605;28;20430;-71
2023/10/30 11:58:00;;;;;;;6.07;2.07;;;14.80;99.90;;;;;;5056926;28;20470;-71
2023/10/30 12:00:30;;;;;;;6.60;2.00;;;14.80;99.90;;;;;;5056900;28;20440;-71
2023/10/30 12:03:00;;;;;;;7.13;2.40;;;14.80;99.90;;;;;;5057462;28;20448;-71
2023/10/30 12:05:29;;;;;;;6.10;2.47;;;14.80;99.90;;;;;;5057128;28;20419;-71
2023/10/30 12:07:57;;;;;;;7.73;2.57;;;14.80;99.90;;;;;;5071490;28;20462;-71
2023/10/30 12:10:25;;;;;;;8.83;2.00;;;14.80;99.90;;;;;;5060463;28;21002;-72
2023/10/30 12:12:54;;;;;;;5.30;2.20;;;14.90;99.90;;;;;;5056827;28;20857;-72
2023/10/30 12:15:23;;;;;;;7.00;2.50;;;14.90;99.90;;;;;;5056765;28;20436;-72
2023/10/30 12:17:51;;;;;;;7.27;2.17;;;14.90;99.90;;;;;;5056866;28;20532;-71
2023/10/30 12:20:21;;;;;;;5.67;2.57;;;15.00;99.90;;;;;;5038929;28;20449;-71
2023/10/30 12:22:49;;;;;;;3.50;1.90;;;15.00;99.90;;;;;;5038864;28;20541;-72
2023/10/30 12:25:18;;;;;;;4.80;2.70;;;15.00;99.90;;;;;;5056550;28;20441;-72
2023/10/30 12:27:46;;;;;;;9.23;2.37;;;15.10;99.90;;;;;;5056470;28;20966;-72
2023/10/30 12:30:16;;;;;;;6.00;1.93;;;15.10;99.90;;;;;;5056796;28;20436;-72
2023/10/30 12:32:53;;;;;;;8.03;2.33;;;15.10;99.90;;;;;;5056696;28;20452;-72
2023/10/30 12:35:22;;;;;;;6.50;2.83;;;15.10;99.90;;;;;;5056447;28;20465;-72
2023/10/30 12:37:50;;;;;;;6.90;2.43;;;15.20;99.90;;;;;;5056567;28;20458;-72
2023/10/30 12:40:18;;;;;;;5.80;2.50;;;15.20;99.90;;;;;;5056382;28;20465;-72
2023/10/30 12:42:48;;;;;;;5.57;2.30;;;15.20;99.90;;;;;;5056137;28;21030;-72
2023/10/30 12:45:17;;;;;;;4.93;2.07;;;15.30;99.90;;;;;;5056197;28;20444;-72
2023/10/30 12:47:47;;;;;;;9.80;2.20;;;15.30;99.90;;;;;;5038165;28;21068;-72
2023/10/30 12:50:16;;;;;;;6.40;2.97;;;15.30;99.90;;;;;;5056018;28;20413;-72
2023/10/30 12:52:46;;;;;;;5.30;2.27;;;15.30;99.90;;;;;;5054853;28;20434;-72
2023/10/30 12:55:14;;;;;;;7.27;2.40;;;15.40;99.90;;;;;;5056286;28;20441;-72